sensor_id;sensor_type;location;lat;lon;timestamp;temperature;humidity
1405;DHT22;697;51.114;6.542;2023-05-07T00:02:02;18.40;97.00
1405;DHT22;697;51.114;6.542;2023-05-07T00:04:29;18.40;97.00
1405;DHT22;697;51.114;6.542;2023-05-07T00:07:01;18.40;97.00
1405;DHT22;697;51.114;6.542;2023-05-07T00:09:28;18.40;97.00
1405;DHT22;697;51.114;6.542;2023-05-07T00:11:54;18.40;97.00
1405;DHT22;697;51.114;6.542;2023-05-07T00:14:21;18.40;97.00
1405;DHT22;697;51.114;6.542;2023-05-07T00:16:48;18.40;97.40
1405;DHT22;697;51.114;6.542;2023-05-07T00:19:16;18.40;96.90
1405;DHT22;697;51.114;6.542;2023-05-07T00:21:42;18.40;96.90
1405;DHT22;697;51.114;6.542;2023-05-07T00:24:09;18.40;97.10
1405;DHT22;697;51.114;6.542;2023-05-07T00:26:36;18.40;97.10
1405;DHT22;697;51.114;6.542;2023-05-07T00:29:02;18.40;97.20
1405;DHT22;697;51.114;6.542;2023-05-07T00:31:29;18.40;97.30
1405;DHT22;697;51.114;6.542;2023-05-07T00:33:56;18.30;97.30
1405;DHT22;697;51.114;6.542;2023-05-07T00:36:24;18.30;97.30
1405;DHT22;697;51.114;6.542;2023-05-07T00:38:53;18.30;97.30
1405;DHT22;697;51.114;6.542;2023-05-07T00:41:20;18.30;97.40
1405;DHT22;697;51.114;6.542;2023-05-07T00:43:47;18.30;97.40
1405;DHT22;697;51.114;6.542;2023-05-07T00:46:17;18.30;97.40
1405;DHT22;697;51.114;6.542;2023-05-07T00:48:44;18.30;97.50
1405;DHT22;697;51.114;6.542;2023-05-07T00:51:11;18.30;97.50
1405;DHT22;697;51.114;6.542;2023-05-07T00:53:39;18.30;97.50
1405;DHT22;697;51.114;6.542;2023-05-07T00:56:06;18.20;97.40
1405;DHT22;697;51.114;6.542;2023-05-07T00:58:33;18.30;97.50
1405;DHT22;697;51.114;6.542;2023-05-07T01:01:00;18.20;97.50
1405;DHT22;697;51.114;6.542;2023-05-07T01:03:26;18.20;97.60
1405;DHT22;697;51.114;6.542;2023-05-07T01:05:54;18.20;97.70
1405;DHT22;697;51.114;6.542;2023-05-07T01:08:22;18.20;97.80
1405;DHT22;697;51.114;6.542;2023-05-07T01:10:51;18.20;97.80
1405;DHT22;697;51.114;6.542;2023-05-07T01:13:19;18.20;97.80
1405;DHT22;697;51.114;6.542;2023-05-07T01:15:46;18.20;97.70
1405;DHT22;697;51.114;6.542;2023-05-07T01:18:13;18.20;97.80
1405;DHT22;697;51.114;6.542;2023-05-07T01:20:40;18.20;97.80
1405;DHT22;697;51.114;6.542;2023-05-07T01:23:10;18.10;97.90
1405;DHT22;697;51.114;6.542;2023-05-07T01:25:37;18.10;98.00
1405;DHT22;697;51.114;6.542;2023-05-07T01:28:03;18.10;98.00
1405;DHT22;697;51.114;6.542;2023-05-07T01:30:31;18.10;98.10
1405;DHT22;697;51.114;6.542;2023-05-07T01:33:03;18.10;98.10
1405;DHT22;697;51.114;6.542;2023-05-07T01:35:36;18.10;98.10
1405;DHT22;697;51.114;6.542;2023-05-07T01:38:04;18.00;98.10
1405;DHT22;697;51.114;6.542;2023-05-07T01:40:33;18.00;98.10
1405;DHT22;697;51.114;6.542;2023-05-07T01:43:01;18.00;98.10
1405;DHT22;697;51.114;6.542;2023-05-07T01:45:28;18.00;98.20
1405;DHT22;697;51.114;6.542;2023-05-07T01:47:57;18.00;98.20
1405;DHT22;697;51.114;6.542;2023-05-07T01:50:25;18.00;98.00
1405;DHT22;697;51.114;6.542;2023-05-07T01:52:52;18.00;98.10
1405;DHT22;697;51.114;6.542;2023-05-07T01:55:19;18.00;98.00
1405;DHT22;697;51.114;6.542;2023-05-07T01:57:47;18.00;98.10
1405;DHT22;697;51.114;6.542;2023-05-07T02:00:14;17.90;98.10
1405;DHT22;697;51.114;6.542;2023-05-07T02:02:41;17.90;98.10
1405;DHT22;697;51.114;6.542;2023-05-07T02:05:08;17.90;98.10
1405;DHT22;697;51.114;6.542;2023-05-07T02:07:35;17.90;98.20
1405;DHT22;697;51.114;6.542;2023-05-07T02:10:02;17.90;98.20
1405;DHT22;697;51.114;6.542;2023-05-07T02:12:29;17.90;98.30
1405;DHT22;697;51.114;6.542;2023-05-07T02:14:57;17.80;98.30
1405;DHT22;697;51.114;6.542;2023-05-07T02:17:24;17.80;98.30
1405;DHT22;697;51.114;6.542;2023-05-07T02:19:50;17.80;98.30
1405;DHT22;697;51.114;6.542;2023-05-07T02:22:17;17.80;98.60
1405;DHT22;697;51.114;6.542;2023-05-07T02:24:44;17.80;98.20
1405;DHT22;697;51.114;6.542;2023-05-07T02:27:11;17.80;98.20
1405;DHT22;697;51.114;6.542;2023-05-07T02:29:37;17.70;98.10
1405;DHT22;697;51.114;6.542;2023-05-07T02:32:05;17.80;98.10
1405;DHT22;697;51.114;6.542;2023-05-07T02:34:32;17.70;98.00
1405;DHT22;697;51.114;6.542;2023-05-07T02:36:59;17.70;98.00
1405;DHT22;697;51.114;6.542;2023-05-07T02:39:25;17.70;98.10
1405;DHT22;697;51.114;6.542;2023-05-07T02:41:52;17.70;98.10
1405;DHT22;697;51.114;6.542;2023-05-07T02:44:19;17.70;98.20
1405;DHT22;697;51.114;6.542;2023-05-07T02:46:45;17.60;98.20
1405;DHT22;697;51.114;6.542;2023-05-07T02:49:13;17.60;98.20
1405;DHT22;697;51.114;6.542;2023-05-07T02:51:40;17.60;98.30
1405;DHT22;697;51.114;6.542;2023-05-07T02:54:07;17.60;98.40
1405;DHT22;697;51.114;6.542;2023-05-07T02:56:33;17.60;98.50
1405;DHT22;697;51.114;6.542;2023-05-07T02:59:00;17.60;98.50
1405;DHT22;697;51.114;6.542;2023-05-07T03:01:27;17.60;98.60
1405;DHT22;697;51.114;6.542;2023-05-07T03:03:54;17.60;98.70
1405;DHT22;697;51.114;6.542;2023-05-07T03:06:22;17.50;98.60
1405;DHT22;697;51.114;6.542;2023-05-07T03:08:49;17.50;98.70
1405;DHT22;697;51.114;6.542;2023-05-07T03:11:15;17.50;98.60
1405;DHT22;697;51.114;6.542;2023-05-07T03:13:42;17.50;98.70
1405;DHT22;697;51.114;6.542;2023-05-07T03:16:09;17.50;98.80
1405;DHT22;697;51.114;6.542;2023-05-07T03:18:35;17.50;98.80
1405;DHT22;697;51.114;6.542;2023-05-07T03:21:02;17.50;98.90
1405;DHT22;697;51.114;6.542;2023-05-07T03:23:30;17.50;98.90
1405;DHT22;697;51.114;6.542;2023-05-07T03:25:57;17.50;99.00
1405;DHT22;697;51.114;6.542;2023-05-07T03:28:23;17.50;99.10
1405;DHT22;697;51.114;6.542;2023-05-07T03:30:50;17.40;99.10
1405;DHT22;697;51.114;6.542;2023-05-07T03:33:17;17.40;99.20
1405;DHT22;697;51.114;6.542;2023-05-07T03:35:43;17.40;99.10
1405;DHT22;697;51.114;6.542;2023-05-07T03:38:10;17.40;99.20
1405;DHT22;697;51.114;6.542;2023-05-07T03:40:38;17.40;99.00
1405;DHT22;697;51.114;6.542;2023-05-07T03:43:05;17.40;98.90
1405;DHT22;697;51.114;6.542;2023-05-07T03:45:32;17.40;99.00
1405;DHT22;697;51.114;6.542;2023-05-07T03:47:58;17.40;99.30
1405;DHT22;697;51.114;6.542;2023-05-07T03:50:25;17.30;99.00
1405;DHT22;697;51.114;6.542;2023-05-07T03:52:52;17.40;99.10
1405;DHT22;697;51.114;6.542;2023-05-07T03:55:19;17.30;98.90
1405;DHT22;697;51.114;6.542;2023-05-07T03:57:47;17.30;98.90
1405;DHT22;697;51.114;6.542;2023-05-07T04:00:14;17.30;99.00
1405;DHT22;697;51.114;6.542;2023-05-07T04:02:40;17.30;99.10
1405;DHT22;697;51.114;6.542;2023-05-07T04:05:07;17.30;99.10
1405;DHT22;697;51.114;6.542;2023-05-07T04:07:34;17.30;99.10
1405;DHT22;697;51.114;6.542;2023-05-07T04:10:01;17.30;99.10
1405;DHT22;697;51.114;6.542;2023-05-07T04:12:29;17.30;99.10
1405;DHT22;697;51.114;6.542;2023-05-07T04:14:57;17.20;99.00
1405;DHT22;697;51.114;6.542;2023-05-07T04:17:24;17.30;99.00
1405;DHT22;697;51.114;6.542;2023-05-07T04:19:50;17.30;99.10
1405;DHT22;697;51.114;6.542;2023-05-07T04:22:17;17.30;99.00
1405;DHT22;697;51.114;6.542;2023-05-07T04:24:44;17.30;98.90
1405;DHT22;697;51.114;6.542;2023-05-07T04:27:10;17.30;98.90
1405;DHT22;697;51.114;6.542;2023-05-07T04:29:37;17.30;98.80
1405;DHT22;697;51.114;6.542;2023-05-07T04:32:08;17.30;98.80
1405;DHT22;697;51.114;6.542;2023-05-07T04:34:35;17.40;98.80
1405;DHT22;697;51.114;6.542;2023-05-07T04:37:02;17.40;98.80
1405;DHT22;697;51.114;6.542;2023-05-07T04:39:28;17.40;98.80
1405;DHT22;697;51.114;6.542;2023-05-07T04:41:55;17.40;98.70
1405;DHT22;697;51.114;6.542;2023-05-07T04:44:22;17.40;98.70
1405;DHT22;697;51.114;6.542;2023-05-07T04:46:48;17.40;98.80
1405;DHT22;697;51.114;6.542;2023-05-07T04:49:17;17.50;98.80
1405;DHT22;697;51.114;6.542;2023-05-07T04:51:43;17.50;98.80
1405;DHT22;697;51.114;6.542;2023-05-07T04:54:10;17.50;98.80
1405;DHT22;697;51.114;6.542;2023-05-07T04:56:37;17.50;98.80
1405;DHT22;697;51.114;6.542;2023-05-07T04:59:04;17.50;98.80
1405;DHT22;697;51.114;6.542;2023-05-07T05:01:31;17.60;98.70
1405;DHT22;697;51.114;6.542;2023-05-07T05:03:58;17.60;98.70
1405;DHT22;697;51.114;6.542;2023-05-07T05:06:26;17.60;98.70
1405;DHT22;697;51.114;6.542;2023-05-07T05:08:53;17.70;98.70
1405;DHT22;697;51.114;6.542;2023-05-07T05:11:20;17.70;98.60
1405;DHT22;697;51.114;6.542;2023-05-07T05:13:47;17.80;98.60
1405;DHT22;697;51.114;6.542;2023-05-07T05:16:14;17.80;98.50
1405;DHT22;697;51.114;6.542;2023-05-07T05:18:41;17.80;98.40
1405;DHT22;697;51.114;6.542;2023-05-07T05:21:08;17.90;98.20
1405;DHT22;697;51.114;6.542;2023-05-07T05:23:35;17.90;98.10
1405;DHT22;697;51.114;6.542;2023-05-07T05:26:02;17.90;98.10
1405;DHT22;697;51.114;6.542;2023-05-07T05:28:29;17.90;97.80
1405;DHT22;697;51.114;6.542;2023-05-07T05:30:56;18.00;97.70
1405;DHT22;697;51.114;6.542;2023-05-07T05:33:22;18.00;97.60
1405;DHT22;697;51.114;6.542;2023-05-07T05:35:49;18.10;97.60
1405;DHT22;697;51.114;6.542;2023-05-07T05:38:16;18.10;97.40
1405;DHT22;697;51.114;6.542;2023-05-07T05:40:44;18.20;97.50
1405;DHT22;697;51.114;6.542;2023-05-07T05:43:11;18.20;97.30
1405;DHT22;697;51.114;6.542;2023-05-07T05:45:37;18.30;97.30
1405;DHT22;697;51.114;6.542;2023-05-07T05:48:04;18.30;97.20
1405;DHT22;697;51.114;6.542;2023-05-07T05:50:31;18.40;97.00
1405;DHT22;697;51.114;6.542;2023-05-07T05:52:58;18.40;96.70
1405;DHT22;697;51.114;6.542;2023-05-07T05:55:25;18.50;96.60
1405;DHT22;697;51.114;6.542;2023-05-07T05:57:53;18.60;96.50
1405;DHT22;697;51.114;6.542;2023-05-07T06:00:20;18.60;96.20
1405;DHT22;697;51.114;6.542;2023-05-07T06:02:47;18.60;96.10
1405;DHT22;697;51.114;6.542;2023-05-07T06:05:14;18.70;96.10
1405;DHT22;697;51.114;6.542;2023-05-07T06:07:41;18.70;96.00
1405;DHT22;697;51.114;6.542;2023-05-07T06:10:08;18.80;95.80
1405;DHT22;697;51.114;6.542;2023-05-07T06:12:35;18.80;95.70
1405;DHT22;697;51.114;6.542;2023-05-07T06:15:03;18.90;95.60
1405;DHT22;697;51.114;6.542;2023-05-07T06:17:30;18.90;95.40
1405;DHT22;697;51.114;6.542;2023-05-07T06:19:57;19.00;95.30
1405;DHT22;697;51.114;6.542;2023-05-07T06:22:24;19.10;95.10
1405;DHT22;697;51.114;6.542;2023-05-07T06:24:50;19.30;95.10
1405;DHT22;697;51.114;6.542;2023-05-07T06:27:17;19.40;95.00
1405;DHT22;697;51.114;6.542;2023-05-07T06:29:44;19.50;94.70
1405;DHT22;697;51.114;6.542;2023-05-07T06:32:12;19.60;94.20
1405;DHT22;697;51.114;6.542;2023-05-07T06:34:40;19.70;93.90
1405;DHT22;697;51.114;6.542;2023-05-07T06:37:07;19.80;93.80
1405;DHT22;697;51.114;6.542;2023-05-07T06:39:34;19.90;93.60
1405;DHT22;697;51.114;6.542;2023-05-07T06:42:01;19.90;93.30
1405;DHT22;697;51.114;6.542;2023-05-07T06:44:28;19.90;92.90
1405;DHT22;697;51.114;6.542;2023-05-07T06:46:54;20.00;92.50
1405;DHT22;697;51.114;6.542;2023-05-07T06:49:22;20.00;92.30
1405;DHT22;697;51.114;6.542;2023-05-07T06:51:49;20.10;92.40
1405;DHT22;697;51.114;6.542;2023-05-07T06:54:16;20.20;92.40
1405;DHT22;697;51.114;6.542;2023-05-07T06:56:43;20.30;92.40
1405;DHT22;697;51.114;6.542;2023-05-07T06:59:10;20.40;92.30
1405;DHT22;697;51.114;6.542;2023-05-07T07:01:36;20.60;92.30
1405;DHT22;697;51.114;6.542;2023-05-07T07:04:04;20.70;92.10
1405;DHT22;697;51.114;6.542;2023-05-07T07:06:32;20.90;91.70
1405;DHT22;697;51.114;6.542;2023-05-07T07:08:58;21.00;91.30
1405;DHT22;697;51.114;6.542;2023-05-07T07:11:25;21.10;90.70
1405;DHT22;697;51.114;6.542;2023-05-07T07:13:52;21.30;90.40
1405;DHT22;697;51.114;6.542;2023-05-07T07:16:20;21.40;90.10
1405;DHT22;697;51.114;6.542;2023-05-07T07:18:46;21.50;89.60
1405;DHT22;697;51.114;6.542;2023-05-07T07:21:13;21.60;89.20
1405;DHT22;697;51.114;6.542;2023-05-07T07:23:41;21.70;89.10
1405;DHT22;697;51.114;6.542;2023-05-07T07:26:08;21.80;88.70
1405;DHT22;697;51.114;6.542;2023-05-07T07:28:35;21.90;88.00
1405;DHT22;697;51.114;6.542;2023-05-07T07:31:01;22.10;87.40
1405;DHT22;697;51.114;6.542;2023-05-07T07:33:28;22.20;86.80
1405;DHT22;697;51.114;6.542;2023-05-07T07:35:55;22.30;85.40
1405;DHT22;697;51.114;6.542;2023-05-07T07:38:22;22.40;84.50
1405;DHT22;697;51.114;6.542;2023-05-07T07:40:50;22.40;83.60
1405;DHT22;697;51.114;6.542;2023-05-07T07:43:16;22.50;82.90
1405;DHT22;697;51.114;6.542;2023-05-07T07:45:43;22.60;83.10
1405;DHT22;697;51.114;6.542;2023-05-07T07:48:11;22.80;83.10
1405;DHT22;697;51.114;6.542;2023-05-07T07:50:38;23.00;82.70
1405;DHT22;697;51.114;6.542;2023-05-07T07:53:04;23.10;82.10
1405;DHT22;697;51.114;6.542;2023-05-07T07:55:31;23.30;81.30
1405;DHT22;697;51.114;6.542;2023-05-07T07:57:59;23.40;79.40
1405;DHT22;697;51.114;6.542;2023-05-07T08:00:26;23.60;78.60
1405;DHT22;697;51.114;6.542;2023-05-07T08:02:52;23.70;78.60
1405;DHT22;697;51.114;6.542;2023-05-07T08:05:19;23.90;78.90
1405;DHT22;697;51.114;6.542;2023-05-07T08:07:47;24.00;78.30
1405;DHT22;697;51.114;6.542;2023-05-07T08:10:17;24.10;77.60
1405;DHT22;697;51.114;6.542;2023-05-07T08:12:46;24.10;76.80
1405;DHT22;697;51.114;6.542;2023-05-07T08:15:15;24.30;76.60
1405;DHT22;697;51.114;6.542;2023-05-07T08:17:42;24.40;76.50
1405;DHT22;697;51.114;6.542;2023-05-07T08:20:09;24.50;76.00
1405;DHT22;697;51.114;6.542;2023-05-07T08:22:36;24.60;75.40
1405;DHT22;697;51.114;6.542;2023-05-07T08:25:03;24.80;74.50
1405;DHT22;697;51.114;6.542;2023-05-07T08:27:30;24.90;73.80
1405;DHT22;697;51.114;6.542;2023-05-07T08:29:57;25.10;73.30
1405;DHT22;697;51.114;6.542;2023-05-07T08:32:25;25.20;72.80
1405;DHT22;697;51.114;6.542;2023-05-07T08:34:51;25.40;72.60
1405;DHT22;697;51.114;6.542;2023-05-07T08:37:18;25.70;72.40
1405;DHT22;697;51.114;6.542;2023-05-07T08:39:45;25.90;72.10
1405;DHT22;697;51.114;6.542;2023-05-07T08:42:13;26.20;71.90
1405;DHT22;697;51.114;6.542;2023-05-07T08:44:45;26.60;69.60
1405;DHT22;697;51.114;6.542;2023-05-07T08:47:12;26.90;66.40
1405;DHT22;697;51.114;6.542;2023-05-07T08:49:40;27.00;62.90
1405;DHT22;697;51.114;6.542;2023-05-07T08:52:07;27.10;61.10
1405;DHT22;697;51.114;6.542;2023-05-07T08:54:33;27.00;60.10
1405;DHT22;697;51.114;6.542;2023-05-07T08:57:03;26.90;60.60
1405;DHT22;697;51.114;6.542;2023-05-07T08:59:29;26.70;60.90
1405;DHT22;697;51.114;6.542;2023-05-07T09:01:56;26.60;61.60
1405;DHT22;697;51.114;6.542;2023-05-07T09:04:23;26.50;61.70
1405;DHT22;697;51.114;6.542;2023-05-07T09:06:51;26.60;61.10
1405;DHT22;697;51.114;6.542;2023-05-07T09:09:17;26.60;60.50
1405;DHT22;697;51.114;6.542;2023-05-07T09:11:44;26.60;60.30
1405;DHT22;697;51.114;6.542;2023-05-07T09:14:11;26.70;60.10
1405;DHT22;697;51.114;6.542;2023-05-07T09:16:38;26.80;59.50
1405;DHT22;697;51.114;6.542;2023-05-07T09:19:05;27.00;59.60
1405;DHT22;697;51.114;6.542;2023-05-07T09:21:32;27.10;58.50
1405;DHT22;697;51.114;6.542;2023-05-07T09:24:00;27.20;58.10
1405;DHT22;697;51.114;6.542;2023-05-07T09:26:26;27.30;57.40
1405;DHT22;697;51.114;6.542;2023-05-07T09:28:53;27.50;57.70
1405;DHT22;697;51.114;6.542;2023-05-07T09:31:20;27.80;56.40
1405;DHT22;697;51.114;6.542;2023-05-07T09:33:48;28.10;55.00
1405;DHT22;697;51.114;6.542;2023-05-07T09:36:16;28.20;53.00
1405;DHT22;697;51.114;6.542;2023-05-07T09:38:42;28.30;52.40
1405;DHT22;697;51.114;6.542;2023-05-07T09:41:12;28.40;52.10
1405;DHT22;697;51.114;6.542;2023-05-07T09:43:40;28.50;51.20
1405;DHT22;697;51.114;6.542;2023-05-07T09:46:08;28.60;51.00
1405;DHT22;697;51.114;6.542;2023-05-07T09:48:37;28.80;49.90
1405;DHT22;697;51.114;6.542;2023-05-07T09:51:14;28.90;50.40
1405;DHT22;697;51.114;6.542;2023-05-07T09:53:42;29.10;50.90
1405;DHT22;697;51.114;6.542;2023-05-07T09:56:13;29.40;50.50
1405;DHT22;697;51.114;6.542;2023-05-07T09:58:41;29.60;49.40
1405;DHT22;697;51.114;6.542;2023-05-07T10:01:10;29.90;48.60
1405;DHT22;697;51.114;6.542;2023-05-07T10:03:39;30.10;47.40
1405;DHT22;697;51.114;6.542;2023-05-07T10:06:07;30.10;45.50
1405;DHT22;697;51.114;6.542;2023-05-07T10:08:35;29.90;46.30
1405;DHT22;697;51.114;6.542;2023-05-07T10:11:03;29.90;46.10
1405;DHT22;697;51.114;6.542;2023-05-07T10:13:32;29.60;45.80
1405;DHT22;697;51.114;6.542;2023-05-07T10:16:00;29.50;46.40
1405;DHT22;697;51.114;6.542;2023-05-07T10:18:28;29.40;45.90
1405;DHT22;697;51.114;6.542;2023-05-07T10:21:02;29.20;45.60
1405;DHT22;697;51.114;6.542;2023-05-07T10:23:31;29.10;46.10
1405;DHT22;697;51.114;6.542;2023-05-07T10:25:59;29.10;46.80
1405;DHT22;697;51.114;6.542;2023-05-07T10:28:29;29.10;46.80
1405;DHT22;697;51.114;6.542;2023-05-07T10:31:08;29.20;47.30
1405;DHT22;697;51.114;6.542;2023-05-07T10:33:39;29.30;46.70
1405;DHT22;697;51.114;6.542;2023-05-07T10:36:06;29.50;46.60
1405;DHT22;697;51.114;6.542;2023-05-07T10:38:33;29.70;46.00
1405;DHT22;697;51.114;6.542;2023-05-07T10:41:00;29.90;44.50
1405;DHT22;697;51.114;6.542;2023-05-07T10:43:39;30.10;43.60
1405;DHT22;697;51.114;6.542;2023-05-07T10:46:13;30.30;43.70
1405;DHT22;697;51.114;6.542;2023-05-07T10:49:09;30.40;44.50
1405;DHT22;697;51.114;6.542;2023-05-07T10:51:37;30.60;42.70
1405;DHT22;697;51.114;6.542;2023-05-07T10:54:22;30.60;42.20
1405;DHT22;697;51.114;6.542;2023-05-07T10:56:50;30.60;41.80
1405;DHT22;697;51.114;6.542;2023-05-07T10:59:35;30.60;42.40
1405;DHT22;697;51.114;6.542;2023-05-07T11:02:08;30.70;42.80
1405;DHT22;697;51.114;6.542;2023-05-07T11:04:36;30.90;41.80
1405;DHT22;697;51.114;6.542;2023-05-07T11:07:34;30.90;41.60
1405;DHT22;697;51.114;6.542;2023-05-07T11:10:03;31.00;41.10
1405;DHT22;697;51.114;6.542;2023-05-07T11:12:52;31.00;39.70
1405;DHT22;697;51.114;6.542;2023-05-07T11:15:37;30.90;39.60
1405;DHT22;697;51.114;6.542;2023-05-07T11:18:05;30.90;39.50
1405;DHT22;697;51.114;6.542;2023-05-07T11:20:50;30.80;40.10
1405;DHT22;697;51.114;6.542;2023-05-07T11:26:43;30.70;40.30
1405;DHT22;697;51.114;6.542;2023-05-07T11:29:11;30.60;40.50
1405;DHT22;697;51.114;6.542;2023-05-07T11:31:38;30.60;41.40
1405;DHT22;697;51.114;6.542;2023-05-07T11:34:06;30.50;41.50
1405;DHT22;697;51.114;6.542;2023-05-07T11:36:34;30.40;41.30
1405;DHT22;697;51.114;6.542;2023-05-07T11:39:01;30.40;41.30
1405;DHT22;697;51.114;6.542;2023-05-07T11:41:34;30.50;41.50
1405;DHT22;697;51.114;6.542;2023-05-07T11:44:01;30.50;41.00
1405;DHT22;697;51.114;6.542;2023-05-07T11:46:28;30.50;40.20
1405;DHT22;697;51.114;6.542;2023-05-07T11:48:55;30.60;40.50
1405;DHT22;697;51.114;6.542;2023-05-07T11:51:25;30.60;41.90
1405;DHT22;697;51.114;6.542;2023-05-07T11:53:55;30.60;41.70
1405;DHT22;697;51.114;6.542;2023-05-07T11:56:22;30.30;42.80
1405;DHT22;697;51.114;6.542;2023-05-07T11:58:48;30.30;43.40
1405;DHT22;697;51.114;6.542;2023-05-07T12:01:17;30.10;43.10
1405;DHT22;697;51.114;6.542;2023-05-07T12:03:45;30.00;43.50
1405;DHT22;697;51.114;6.542;2023-05-07T12:06:14;30.00;43.80
1405;DHT22;697;51.114;6.542;2023-05-07T12:08:43;29.90;44.40
1405;DHT22;697;51.114;6.542;2023-05-07T12:11:13;29.70;44.60
1405;DHT22;697;51.114;6.542;2023-05-07T12:13:41;29.60;45.50
1405;DHT22;697;51.114;6.542;2023-05-07T12:16:08;29.50;45.70
1405;DHT22;697;51.114;6.542;2023-05-07T12:18:36;29.40;45.70
1405;DHT22;697;51.114;6.542;2023-05-07T12:21:04;29.40;45.30
1405;DHT22;697;51.114;6.542;2023-05-07T12:23:31;29.30;45.60
1405;DHT22;697;51.114;6.542;2023-05-07T12:26:00;29.30;45.60
1405;DHT22;697;51.114;6.542;2023-05-07T12:28:27;29.10;46.50
1405;DHT22;697;51.114;6.542;2023-05-07T12:30:54;29.00;47.20
1405;DHT22;697;51.114;6.542;2023-05-07T12:33:24;28.70;47.30
1405;DHT22;697;51.114;6.542;2023-05-07T12:35:54;28.50;48.50
1405;DHT22;697;51.114;6.542;2023-05-07T12:38:20;28.40;48.70
1405;DHT22;697;51.114;6.542;2023-05-07T12:40:48;28.20;49.00
1405;DHT22;697;51.114;6.542;2023-05-07T12:43:18;28.20;49.30
1405;DHT22;697;51.114;6.542;2023-05-07T12:45:46;28.10;49.20
1405;DHT22;697;51.114;6.542;2023-05-07T12:48:13;28.10;49.30
1405;DHT22;697;51.114;6.542;2023-05-07T12:50:40;28.10;48.70
1405;DHT22;697;51.114;6.542;2023-05-07T12:53:08;28.10;48.70
1405;DHT22;697;51.114;6.542;2023-05-07T12:55:44;28.20;48.50
1405;DHT22;697;51.114;6.542;2023-05-07T12:58:20;28.30;48.70
1405;DHT22;697;51.114;6.542;2023-05-07T13:00:48;28.50;48.40
1405;DHT22;697;51.114;6.542;2023-05-07T13:03:23;28.70;47.50
1405;DHT22;697;51.114;6.542;2023-05-07T13:05:50;28.90;47.90
1405;DHT22;697;51.114;6.542;2023-05-07T13:08:24;29.20;47.20
1405;DHT22;697;51.114;6.542;2023-05-07T13:10:51;29.80;46.70
1405;DHT22;697;51.114;6.542;2023-05-07T13:13:19;29.90;43.40
1405;DHT22;697;51.114;6.542;2023-05-07T13:15:46;29.70;43.20
1405;DHT22;697;51.114;6.542;2023-05-07T13:18:13;29.40;44.20
1405;DHT22;697;51.114;6.542;2023-05-07T13:20:40;29.10;45.20
1405;DHT22;697;51.114;6.542;2023-05-07T13:23:07;28.90;46.20
1405;DHT22;697;51.114;6.542;2023-05-07T13:25:33;28.60;45.80
1405;DHT22;697;51.114;6.542;2023-05-07T13:28:00;28.30;46.50
1405;DHT22;697;51.114;6.542;2023-05-07T13:30:29;28.00;48.00
1405;DHT22;697;51.114;6.542;2023-05-07T13:32:56;27.70;48.50
1405;DHT22;697;51.114;6.542;2023-05-07T13:35:23;27.50;49.50
1405;DHT22;697;51.114;6.542;2023-05-07T13:37:50;27.20;49.90
1405;DHT22;697;51.114;6.542;2023-05-07T13:40:17;27.00;50.40
1405;DHT22;697;51.114;6.542;2023-05-07T13:42:45;26.60;51.50
1405;DHT22;697;51.114;6.542;2023-05-07T13:45:11;26.30;52.80
1405;DHT22;697;51.114;6.542;2023-05-07T13:47:40;26.00;53.80
1405;DHT22;697;51.114;6.542;2023-05-07T13:50:08;25.90;54.40
1405;DHT22;697;51.114;6.542;2023-05-07T13:52:36;25.70;55.50
1405;DHT22;697;51.114;6.542;2023-05-07T13:55:04;25.60;55.80
1405;DHT22;697;51.114;6.542;2023-05-07T13:57:31;25.20;55.90
1405;DHT22;697;51.114;6.542;2023-05-07T13:59:57;24.90;55.60
1405;DHT22;697;51.114;6.542;2023-05-07T14:02:24;24.50;56.60
1405;DHT22;697;51.114;6.542;2023-05-07T14:04:52;24.00;57.40
1405;DHT22;697;51.114;6.542;2023-05-07T14:07:19;23.70;58.60
1405;DHT22;697;51.114;6.542;2023-05-07T14:09:45;23.60;59.20
1405;DHT22;697;51.114;6.542;2023-05-07T14:12:12;23.50;59.90
1405;DHT22;697;51.114;6.542;2023-05-07T14:14:39;23.50;61.30
1405;DHT22;697;51.114;6.542;2023-05-07T14:17:05;23.30;61.80
1405;DHT22;697;51.114;6.542;2023-05-07T14:19:33;23.10;62.70
1405;DHT22;697;51.114;6.542;2023-05-07T14:22:01;22.80;63.60
1405;DHT22;697;51.114;6.542;2023-05-07T14:24:28;22.60;65.30
1405;DHT22;697;51.114;6.542;2023-05-07T14:26:56;22.40;66.70
1405;DHT22;697;51.114;6.542;2023-05-07T14:29:22;22.30;68.60
1405;DHT22;697;51.114;6.542;2023-05-07T14:31:49;22.20;68.90
1405;DHT22;697;51.114;6.542;2023-05-07T14:34:16;22.20;70.50
1405;DHT22;697;51.114;6.542;2023-05-07T14:36:43;22.20;72.10
1405;DHT22;697;51.114;6.542;2023-05-07T14:39:11;22.30;72.60
1405;DHT22;697;51.114;6.542;2023-05-07T14:41:37;22.30;73.10
1405;DHT22;697;51.114;6.542;2023-05-07T14:44:04;22.40;73.90
1405;DHT22;697;51.114;6.542;2023-05-07T14:46:31;22.50;75.40
1405;DHT22;697;51.114;6.542;2023-05-07T14:48:58;22.60;76.90
1405;DHT22;697;51.114;6.542;2023-05-07T14:51:24;22.70;76.70
1405;DHT22;697;51.114;6.542;2023-05-07T14:53:53;22.80;77.20
1405;DHT22;697;51.114;6.542;2023-05-07T14:56:21;22.90;77.10
1405;DHT22;697;51.114;6.542;2023-05-07T14:58:48;23.10;78.10
1405;DHT22;697;51.114;6.542;2023-05-07T15:01:15;23.30;78.40
1405;DHT22;697;51.114;6.542;2023-05-07T15:03:41;23.50;78.10
1405;DHT22;697;51.114;6.542;2023-05-07T15:06:08;23.90;79.00
1405;DHT22;697;51.114;6.542;2023-05-07T15:08:35;24.10;78.20
1405;DHT22;697;51.114;6.542;2023-05-07T15:11:02;24.40;77.70
1405;DHT22;697;51.114;6.542;2023-05-07T15:13:30;24.80;76.20
1405;DHT22;697;51.114;6.542;2023-05-07T15:15:57;25.00;73.70
1405;DHT22;697;51.114;6.542;2023-05-07T15:18:24;25.20;72.70
1405;DHT22;697;51.114;6.542;2023-05-07T15:20:50;25.40;71.10
1405;DHT22;697;51.114;6.542;2023-05-07T15:23:17;25.50;70.20
1405;DHT22;697;51.114;6.542;2023-05-07T15:25:44;25.40;69.50
1405;DHT22;697;51.114;6.542;2023-05-07T15:28:10;25.40;70.10
1405;DHT22;697;51.114;6.542;2023-05-07T15:30:38;25.50;69.80
1405;DHT22;697;51.114;6.542;2023-05-07T15:33:05;25.50;69.30
1405;DHT22;697;51.114;6.542;2023-05-07T15:35:32;25.50;69.60
1405;DHT22;697;51.114;6.542;2023-05-07T15:37:59;25.60;70.10
1405;DHT22;697;51.114;6.542;2023-05-07T15:40:25;25.70;70.00
1405;DHT22;697;51.114;6.542;2023-05-07T15:42:54;25.70;70.00
1405;DHT22;697;51.114;6.542;2023-05-07T15:45:22;25.80;69.10
1405;DHT22;697;51.114;6.542;2023-05-07T15:47:50;25.80;68.40
1405;DHT22;697;51.114;6.542;2023-05-07T15:50:17;25.90;68.70
1405;DHT22;697;51.114;6.542;2023-05-07T15:52:43;26.00;68.30
1405;DHT22;697;51.114;6.542;2023-05-07T15:55:11;26.10;68.20
1405;DHT22;697;51.114;6.542;2023-05-07T15:57:38;26.20;67.80
1405;DHT22;697;51.114;6.542;2023-05-07T16:00:06;26.10;67.40
1405;DHT22;697;51.114;6.542;2023-05-07T16:02:36;26.10;67.30
1405;DHT22;697;51.114;6.542;2023-05-07T16:05:06;26.10;67.10
1405;DHT22;697;51.114;6.542;2023-05-07T16:07:35;26.10;67.10
1405;DHT22;697;51.114;6.542;2023-05-07T16:10:02;26.10;67.90
1405;DHT22;697;51.114;6.542;2023-05-07T16:12:29;26.00;68.00
1405;DHT22;697;51.114;6.542;2023-05-07T16:14:56;26.00;67.00
1405;DHT22;697;51.114;6.542;2023-05-07T16:17:23;26.00;67.60
1405;DHT22;697;51.114;6.542;2023-05-07T16:19:50;26.00;68.00
1405;DHT22;697;51.114;6.542;2023-05-07T16:22:19;25.90;67.20
1405;DHT22;697;51.114;6.542;2023-05-07T16:24:46;25.80;66.00